Terminal Aerodrome Forecast
Issued by NWS Flagstaff, AZ

Home | Current Version | Previous Version | Text Only | Print | Product List | Glossary On
Versions: 1 2 3 4 5 6 7 8 9 10 11 12 13 14 15 16
000
FTUS45 KFGZ 222300
TAFFLG
TAF
KFLG 222323Z 2300/2324 VRB05KT P6SM BKN100
     FM231800 20009KT P6SM BKN090 PROB30 2318/2324 VRB15G25KT 6SM
      -TSRA BKN070CB=

USA.gov is the U.S. government's official web portal to all federal, state and local government web resources and services.